バンコク/スワンナプーム の空港の天気 - METARとTAF

スワンナプーム国際空港 ( VTBS / BKK ) - タイ サムットプラーカーン県 (バンコク近郊)
飛行場実況気象(Metar)
観測時間10/23 12:30 ICT (10/23 05:30 UTC)
風向・風速南東 2m/s
視程10km以上
天気現象
少しの雲 雲底高度 610m
全天の4割程度の雲 雲底高度 910m
気温32℃
湿度63%
気圧1011hPa
METARVTBS 230530Z 14004KT 080V200 9999 FEW020TCU SCT030 32/24 Q1011 NOSIG
過去の天気等 Google飛行場航空写真 Wunderground天気予報

過去48時間のMETAR

飛行場予報(TAF)
発表時間: 10/23 12:00 ICT (10/23 05:00 UTC)
予報対象時間: 23日13時 ICT ~ 24日19時 ICT
風向・風速北北東 3m/s
視程10km以上
少しの雲 雲底高度 610m
23日17時 ICT ~ 23日19時 ICT に徐々に
風向・風速南 4m/s
23日21時 ICT ~ 24日3時 ICT に一時的に
風向・風速不定 8m/s
視程6000m
天気現象弱い雷雨
少しの積乱雲 雲底高度 550m
全天の4割程度の雲 雲底高度 910m
24日5時 ICT ~ 24日7時 ICT に徐々に
風向・風速北 3m/s
24日10時 ICT ~ 24日12時 ICT に徐々に
風向・風速南東 4m/s
TAF VTBS 230500Z 2306/2412 03005KT 9999 FEW020
BECMG 2310/2312 19008KT
TEMPO 2314/2320 VRB15KT 6000 -TSRA FEW018CB SCT030
BECMG 2322/2324 01005KT
BECMG 2403/2405 14008KT